createdAt,value
2022-09-26T00:01:44.677Z,16.00
2022-09-26T00:04:25.255Z,13.63
2022-09-26T00:06:55.453Z,13.50
2022-09-26T00:09:24.088Z,14.73
2022-09-26T00:11:51.796Z,15.32
2022-09-26T00:14:21.709Z,15.27
2022-09-26T00:16:49.267Z,15.05
2022-09-26T00:19:17.021Z,13.48
2022-09-26T00:21:43.854Z,14.70
2022-09-26T00:24:10.827Z,14.52
2022-09-26T00:26:38.477Z,15.52
2022-09-26T00:29:10.020Z,15.23
2022-09-26T00:31:40.034Z,15.13
2022-09-26T00:34:07.444Z,15.93
2022-09-26T00:36:38.514Z,15.13
2022-09-26T00:39:07.555Z,15.30
2022-09-26T00:41:34.979Z,15.23
2022-09-26T00:44:01.980Z,15.38
2022-09-26T00:46:34.916Z,15.00
2022-09-26T00:49:29.357Z,14.45
2022-09-26T00:52:06.214Z,15.38
2022-09-26T00:54:36.030Z,15.57
2022-09-26T00:57:08.616Z,15.13
2022-09-26T00:59:39.183Z,15.88
2022-09-26T01:02:06.267Z,14.38
2022-09-26T01:04:36.226Z,13.73
2022-09-26T01:07:08.409Z,15.13
2022-09-26T01:09:35.509Z,15.63
2022-09-26T01:12:04.741Z,14.60
2022-09-26T01:14:33.032Z,14.10
2022-09-26T01:18:36.081Z,14.25
2022-09-26T01:21:21.113Z,14.30
2022-09-26T01:23:56.693Z,14.90
2022-09-26T01:26:35.622Z,14.60
2022-09-26T01:29:39.780Z,14.07
2022-09-26T01:32:40.034Z,14.00
2022-09-26T01:35:09.355Z,12.48
2022-09-26T01:38:00.145Z,11.73
2022-09-26T01:40:35.791Z,13.45
2022-09-26T01:43:28.447Z,13.70
2022-09-26T01:46:06.289Z,13.10
2022-09-26T01:48:43.066Z,14.40
2022-09-26T01:51:28.846Z,13.40
2022-09-26T01:54:18.764Z,12.85
2022-09-26T01:56:48.857Z,13.23
2022-09-26T01:59:24.101Z,13.90
2022-09-26T02:01:56.508Z,13.13
2022-09-26T02:04:29.452Z,15.63
2022-09-26T02:07:02.411Z,13.85
2022-09-26T02:09:40.598Z,13.77
2022-09-26T02:12:12.020Z,14.18
2022-09-26T02:14:41.932Z,16.20
2022-09-26T02:17:12.808Z,14.07
2022-09-26T02:19:57.818Z,15.48
2022-09-26T02:22:27.403Z,15.27
2022-09-26T02:24:54.019Z,19.13
2022-09-26T02:27:21.405Z,17.98
2022-09-26T02:29:48.164Z,18.85
2022-09-26T02:32:19.185Z,17.38
2022-09-26T02:34:48.110Z,17.88
2022-09-26T02:37:21.046Z,18.10
2022-09-26T02:39:49.951Z,16.40
2022-09-26T02:42:34.201Z,19.02
2022-09-26T02:45:06.976Z,19.88
2022-09-26T02:48:08.264Z,19.92
2022-09-26T02:50:59.108Z,17.85
2022-09-26T02:53:59.379Z,16.98
2022-09-26T02:56:47.650Z,17.25
2022-09-26T02:59:35.385Z,18.05
2022-09-26T03:02:14.478Z,20.52
2022-09-26T03:04:48.910Z,22.80
2022-09-26T03:07:24.310Z,20.55
2022-09-26T03:09:52.639Z,19.73
2022-09-26T03:12:20.750Z,19.60
2022-09-26T03:14:49.408Z,19.90
2022-09-26T03:19:46.606Z,17.35
2022-09-26T03:22:15.459Z,17.58
2022-09-26T03:24:43.328Z,15.95
2022-09-26T03:27:12.683Z,17.10
2022-09-26T03:29:39.379Z,16.05
2022-09-26T03:32:06.574Z,16.23
2022-09-26T03:34:33.303Z,17.38
2022-09-26T03:36:59.831Z,16.23
2022-09-26T03:39:26.368Z,16.65
2022-09-26T03:41:53.775Z,17.52
2022-09-26T03:44:21.958Z,15.77
2022-09-26T03:46:48.762Z,15.73
2022-09-26T03:49:15.654Z,17.23
2022-09-26T03:51:44.340Z,17.73
2022-09-26T03:54:14.190Z,17.08
2022-09-26T03:56:41.325Z,17.90
2022-09-26T03:59:09.257Z,18.10
2022-09-26T04:01:35.855Z,20.55
2022-09-26T04:04:02.659Z,20.35
2022-09-26T04:06:29.217Z,23.02
2022-09-26T04:08:56.452Z,24.00
2022-09-26T04:11:24.886Z,24.83
2022-09-26T04:13:53.954Z,25.10
2022-09-26T04:16:23.864Z,29.13
2022-09-26T04:18:55.909Z,25.00
2022-09-26T04:21:22.562Z,25.75
2022-09-26T04:23:50.393Z,27.08
2022-09-26T04:26:23.316Z,30.67
2022-09-26T04:28:55.221Z,30.17
2022-09-26T04:31:23.427Z,34.33
2022-09-26T04:33:51.334Z,35.90
2022-09-26T04:36:17.953Z,37.72
2022-09-26T04:38:44.751Z,38.00
2022-09-26T04:41:12.464Z,37.60
2022-09-26T04:43:39.042Z,35.60
2022-09-26T04:46:32.046Z,34.95
2022-09-26T04:49:00.430Z,34.25
2022-09-26T04:51:28.507Z,35.72
2022-09-26T04:53:55.831Z,36.92
2022-09-26T04:56:24.353Z,38.65
2022-09-26T04:58:51.599Z,38.58
2022-09-26T05:01:20.324Z,39.20
2022-09-26T05:03:47.239Z,39.67
2022-09-26T05:06:15.326Z,39.13
2022-09-26T05:08:44.759Z,40.08
2022-09-26T05:11:11.438Z,39.35
2022-09-26T05:13:39.025Z,37.67
2022-09-26T05:16:08.999Z,35.03
2022-09-26T05:20:31.481Z,33.00
2022-09-26T05:22:58.961Z,34.13
2022-09-26T05:25:45.740Z,33.42
2022-09-26T05:28:12.532Z,35.65
2022-09-26T05:30:39.571Z,37.40
2022-09-26T05:33:06.121Z,37.65
2022-09-26T05:35:36.084Z,40.05
2022-09-26T05:38:04.540Z,38.83
2022-09-26T05:40:50.378Z,38.92
2022-09-26T05:43:17.071Z,36.30
2022-09-26T05:45:44.391Z,35.85
2022-09-26T05:48:10.977Z,35.17
2022-09-26T05:50:40.476Z,34.05
2022-09-26T05:53:10.099Z,37.05
2022-09-26T05:55:39.600Z,35.05
2022-09-26T05:58:06.439Z,33.85
2022-09-26T06:00:34.307Z,32.78
2022-09-26T06:03:03.824Z,34.83
2022-09-26T06:05:33.807Z,36.13
2022-09-26T06:08:01.958Z,36.63
2022-09-26T06:10:30.848Z,36.92
2022-09-26T06:13:05.518Z,37.08
2022-09-26T06:15:32.094Z,37.03
2022-09-26T06:18:06.737Z,37.95
2022-09-26T06:20:34.250Z,35.85
2022-09-26T06:23:01.947Z,36.90
2022-09-26T06:25:29.511Z,37.22
2022-09-26T06:28:00.133Z,38.33
2022-09-26T06:30:27.274Z,35.45
2022-09-26T06:32:54.738Z,36.47
2022-09-26T06:35:21.835Z,38.40
2022-09-26T06:37:48.629Z,35.72
2022-09-26T06:40:15.672Z,37.70
2022-09-26T06:42:43.550Z,37.45
2022-09-26T06:45:10.964Z,34.42
2022-09-26T06:47:37.582Z,36.50
2022-09-26T06:50:04.995Z,35.53
2022-09-26T06:52:35.119Z,34.35
2022-09-26T06:55:03.836Z,34.25
2022-09-26T06:57:37.720Z,36.55
2022-09-26T07:00:04.865Z,36.08
2022-09-26T07:02:31.478Z,35.00
2022-09-26T07:04:58.229Z,35.30
2022-09-26T07:07:25.627Z,35.22
2022-09-26T07:09:52.264Z,36.67
2022-09-26T07:12:19.076Z,33.30
2022-09-26T07:14:48.886Z,31.27
2022-09-26T07:17:19.543Z,34.15
2022-09-26T07:21:42.877Z,33.45
2022-09-26T07:24:14.310Z,33.33
2022-09-26T07:26:42.278Z,33.35
2022-09-26T07:29:10.034Z,32.58
2022-09-26T07:31:37.356Z,34.85
2022-09-26T07:34:04.350Z,35.13
2022-09-26T07:36:31.784Z,33.25
2022-09-26T07:38:58.702Z,32.20
2022-09-26T07:41:25.372Z,32.67
2022-09-26T07:46:57.754Z,31.48
2022-09-26T07:49:43.124Z,32.97
2022-09-26T07:52:10.120Z,33.60
2022-09-26T07:54:40.918Z,31.92
2022-09-26T07:57:08.148Z,37.92
2022-09-26T07:59:37.286Z,33.53
2022-09-26T08:02:05.106Z,30.67
2022-09-26T08:04:32.028Z,32.10
2022-09-26T08:06:59.626Z,29.15
2022-09-26T08:09:26.670Z,26.48
2022-09-26T08:11:55.622Z,28.98
2022-09-26T08:14:22.387Z,25.00
2022-09-26T08:16:49.214Z,24.27
2022-09-26T08:19:17.635Z,24.17
2022-09-26T08:21:44.383Z,23.77
2022-09-26T08:24:11.071Z,24.83
2022-09-26T08:26:43.910Z,21.30
2022-09-26T08:29:12.726Z,22.00
2022-09-26T08:31:40.165Z,20.75
2022-09-26T08:34:08.647Z,21.02
2022-09-26T08:36:38.348Z,19.95
2022-09-26T08:39:05.539Z,19.77
2022-09-26T08:41:53.315Z,21.23
2022-09-26T08:44:53.004Z,20.13
2022-09-26T08:47:50.473Z,19.10
2022-09-26T08:50:28.542Z,22.23
2022-09-26T08:53:07.152Z,19.73
2022-09-26T08:55:40.886Z,20.83
2022-09-26T08:58:44.573Z,19.65
2022-09-26T09:01:25.150Z,20.33
2022-09-26T09:03:59.008Z,20.83
2022-09-26T09:06:28.266Z,20.33
2022-09-26T09:08:56.690Z,18.98
2022-09-26T09:11:51.826Z,20.38
2022-09-26T09:14:41.018Z,19.27
2022-09-26T09:17:33.912Z,18.23
2022-09-26T09:23:20.515Z,18.60
2022-09-26T09:27:52.281Z,16.25
2022-09-26T09:29:10.405Z,16.38
2022-09-26T09:31:48.774Z,14.30
2022-09-26T09:34:53.013Z,17.38
2022-09-26T09:37:44.404Z,16.60
2022-09-26T09:40:48.866Z,16.08
2022-09-26T09:46:23.988Z,14.88
2022-09-26T09:49:16.270Z,16.15
2022-09-26T09:52:11.360Z,14.98
2022-09-26T09:55:05.504Z,14.88
2022-09-26T10:00:38.665Z,14.20
2022-09-26T10:04:01.658Z,16.05
2022-09-26T10:06:47.354Z,14.48
2022-09-26T10:19:49.927Z,15.68
2022-09-26T10:22:37.648Z,15.18
2022-09-26T10:25:49.603Z,16.35
2022-09-26T10:29:17.410Z,14.55
2022-09-26T10:32:21.776Z,15.80
2022-09-26T10:35:08.187Z,15.02
2022-09-26T10:37:39.153Z,14.15
2022-09-26T10:43:40.572Z,12.73
2022-09-26T10:46:13.436Z,15.00
2022-09-26T10:48:52.399Z,13.98
2022-09-26T10:51:51.045Z,13.00
2022-09-26T10:54:37.702Z,13.27
2022-09-26T10:57:22.237Z,12.85
2022-09-26T11:00:01.451Z,12.63
2022-09-26T11:02:34.913Z,12.93
2022-09-26T11:05:24.660Z,11.80
2022-09-26T11:08:18.029Z,13.15
2022-09-26T11:11:03.889Z,13.25
2022-09-26T11:13:53.894Z,13.98
2022-09-26T11:16:51.200Z,13.07
2022-09-26T11:23:51.070Z,12.65
2022-09-26T11:26:28.074Z,13.40
2022-09-26T11:29:36.914Z,13.23
2022-09-26T11:32:06.471Z,12.35
2022-09-26T11:34:38.256Z,11.68
2022-09-26T11:37:10.995Z,12.88
2022-09-26T11:39:52.327Z,11.35
2022-09-26T11:43:38.677Z,11.05
2022-09-26T11:46:53.451Z,14.38
2022-09-26T11:50:03.240Z,12.13
2022-09-26T11:52:56.666Z,13.27
2022-09-26T11:55:40.000Z,10.60
2022-09-26T11:58:28.202Z,8.93
2022-09-26T12:01:08.300Z,9.93
2022-09-26T12:04:00.730Z,9.38
2022-09-26T12:06:56.344Z,10.02
2022-09-26T12:09:42.037Z,18.20
2022-09-26T12:12:28.607Z,9.70
2022-09-26T12:15:02.552Z,9.35
2022-09-26T12:17:55.695Z,8.73
2022-09-26T12:21:04.035Z,11.98
2022-09-26T12:23:54.104Z,51.63
2022-09-26T12:26:45.121Z,14.27
2022-09-26T12:29:24.559Z,9.57
2022-09-26T12:31:54.992Z,7.90
2022-09-26T12:34:57.968Z,8.80
2022-09-26T12:37:37.601Z,7.95
2022-09-26T12:40:12.776Z,8.38
2022-09-26T12:42:51.570Z,9.27
2022-09-26T12:46:00.680Z,8.88
2022-09-26T12:49:30.638Z,8.25
2022-09-26T12:52:16.458Z,8.77
2022-09-26T12:55:29.888Z,8.23
2022-09-26T12:58:19.562Z,8.60
2022-09-26T13:01:02.270Z,8.55
2022-09-26T13:03:50.503Z,8.98
2022-09-26T13:06:28.046Z,10.30
2022-09-26T13:09:14.155Z,8.77
2022-09-26T13:12:26.361Z,14.95
2022-09-26T13:15:16.116Z,8.57
2022-09-26T13:18:33.119Z,8.18
2022-09-26T13:25:07.881Z,8.43
2022-09-26T13:28:07.381Z,8.82
2022-09-26T13:30:39.637Z,8.60
2022-09-26T13:33:25.295Z,9.50
2022-09-26T13:35:56.758Z,14.55
2022-09-26T13:38:46.038Z,9.40
2022-09-26T13:41:50.693Z,8.85
2022-09-26T13:44:23.928Z,9.85
2022-09-26T13:47:08.046Z,10.05
2022-09-26T13:50:01.885Z,10.60
2022-09-26T13:52:47.332Z,9.32
2022-09-26T13:55:20.677Z,8.52
2022-09-26T13:58:04.464Z,8.60
2022-09-26T14:00:38.011Z,9.85
2022-09-26T14:03:17.485Z,8.93
2022-09-26T14:05:44.619Z,8.27
2022-09-26T14:08:51.842Z,8.23
2022-09-26T14:11:30.832Z,8.10
2022-09-26T14:14:22.167Z,9.00
2022-09-26T14:16:51.280Z,9.88
2022-09-26T14:19:36.438Z,9.52
2022-09-26T14:22:26.393Z,10.63
2022-09-26T14:24:56.006Z,10.00
2022-09-26T14:27:41.777Z,9.25
2022-09-26T14:30:30.008Z,10.35
2022-09-26T14:33:03.629Z,9.95
2022-09-26T14:38:02.159Z,10.32
2022-09-26T14:40:32.903Z,10.95
2022-09-26T14:43:17.441Z,10.30
2022-09-26T14:45:51.807Z,9.63
2022-09-26T14:48:38.903Z,10.45
2022-09-26T14:51:12.603Z,11.20
2022-09-26T14:53:50.850Z,11.00
2022-09-26T14:56:29.912Z,10.23
2022-09-26T14:59:27.600Z,10.27
2022-09-26T15:02:26.170Z,10.30
2022-09-26T15:05:18.303Z,10.13
2022-09-26T15:07:49.134Z,11.45
2022-09-26T15:10:34.572Z,13.32
2022-09-26T15:13:29.225Z,13.30
2022-09-26T15:16:14.961Z,12.10
2022-09-26T15:18:51.752Z,14.80
2022-09-26T15:21:36.716Z,13.75
2022-09-26T15:32:15.664Z,13.18
2022-09-26T15:34:59.418Z,14.85
2022-09-26T15:37:32.531Z,16.27
2022-09-26T15:40:18.286Z,13.68
2022-09-26T15:43:03.003Z,14.02
2022-09-26T15:45:50.422Z,13.00
2022-09-26T15:48:22.800Z,12.90
2022-09-26T15:51:01.877Z,13.07
2022-09-26T15:53:46.856Z,12.57
2022-09-26T15:56:18.893Z,13.02
2022-09-26T15:58:59.190Z,18.42
2022-09-26T16:01:29.740Z,57.88
2022-09-26T16:04:06.649Z,21.83
2022-09-26T16:06:52.813Z,14.50
2022-09-26T16:09:26.191Z,15.15
2022-09-26T16:11:53.397Z,14.55
2022-09-26T16:14:32.665Z,14.43
2022-09-26T16:17:24.801Z,15.75
2022-09-26T16:19:57.051Z,17.35
2022-09-26T16:22:49.413Z,19.67
2022-09-26T16:25:51.267Z,23.77
2022-09-26T16:28:58.186Z,24.63
2022-09-26T16:34:36.604Z,21.38
2022-09-26T16:37:24.164Z,22.60
2022-09-26T16:49:37.177Z,28.65
2022-09-26T16:55:58.443Z,30.90
2022-09-26T16:58:26.084Z,28.58
2022-09-26T17:01:11.795Z,35.22
2022-09-26T17:03:41.359Z,35.22
2022-09-26T17:06:08.854Z,43.75
2022-09-26T17:08:35.473Z,42.92
2022-09-26T17:11:03.051Z,36.22
2022-09-26T17:13:31.228Z,37.05
2022-09-26T17:16:00.857Z,33.00
2022-09-26T17:18:33.445Z,30.35
2022-09-26T17:21:00.329Z,29.42
2022-09-26T17:26:36.306Z,27.40
2022-09-26T17:29:03.751Z,26.73
2022-09-26T17:31:34.742Z,26.33
2022-09-26T17:34:02.284Z,24.90
2022-09-26T17:36:29.918Z,24.58
2022-09-26T17:38:59.739Z,24.65
2022-09-26T17:41:28.077Z,23.67
2022-09-26T17:44:01.269Z,23.80
2022-09-26T17:46:29.050Z,25.33
2022-09-26T17:48:56.471Z,24.88
2022-09-26T17:51:24.203Z,24.25
2022-09-26T17:53:52.888Z,27.75
2022-09-26T17:56:20.614Z,27.30
2022-09-26T17:58:48.613Z,26.52
2022-09-26T18:01:23.454Z,28.38
2022-09-26T18:03:54.435Z,28.58
2022-09-26T18:06:24.767Z,27.17
2022-09-26T18:08:52.607Z,27.92
2022-09-26T18:11:19.841Z,27.50
2022-09-26T18:13:55.754Z,28.65
2022-09-26T18:19:15.435Z,29.85
2022-09-26T18:21:42.137Z,29.58
2022-09-26T18:24:19.236Z,26.65
2022-09-26T18:26:47.626Z,30.35
2022-09-26T18:29:25.320Z,27.35
2022-09-26T18:31:53.458Z,29.02
2022-09-26T18:34:20.551Z,30.38
2022-09-26T18:36:50.202Z,34.83
2022-09-26T18:39:17.051Z,41.20
2022-09-26T18:41:45.320Z,36.92
2022-09-26T18:44:17.433Z,33.47
2022-09-26T18:46:47.294Z,32.15
2022-09-26T18:49:14.997Z,34.67
2022-09-26T18:51:41.746Z,30.13
2022-09-26T18:54:16.495Z,29.33
2022-09-26T18:57:02.473Z,28.83
2022-09-26T18:59:32.308Z,29.92
2022-09-26T19:02:02.289Z,30.75
2022-09-26T19:04:30.875Z,29.55
2022-09-26T19:07:01.192Z,29.13
2022-09-26T19:09:35.664Z,30.02
2022-09-26T19:12:03.725Z,30.77
2022-09-26T19:14:31.856Z,30.70
2022-09-26T19:16:58.710Z,30.85
2022-09-26T19:19:26.460Z,30.65
2022-09-26T19:21:56.999Z,30.45
2022-09-26T19:27:45.893Z,35.28
2022-09-26T19:32:41.698Z,81.22
2022-09-26T19:35:21.994Z,110.70
2022-09-26T19:37:48.886Z,60.08
2022-09-26T19:40:18.798Z,47.40
2022-09-26T19:42:46.114Z,39.35
2022-09-26T19:45:14.021Z,36.25
2022-09-26T19:47:45.167Z,34.60
2022-09-26T19:50:23.503Z,40.22
2022-09-26T19:52:52.723Z,33.33
2022-09-26T19:55:26.681Z,31.88
2022-09-26T19:57:54.764Z,34.58
2022-09-26T20:00:21.646Z,32.95
2022-09-26T20:02:52.079Z,33.05
2022-09-26T20:05:18.953Z,29.42
2022-09-26T20:07:46.392Z,26.98
2022-09-26T20:10:19.331Z,26.98
2022-09-26T20:12:46.989Z,31.88
2022-09-26T20:15:15.059Z,31.17
2022-09-26T20:17:44.742Z,32.63
2022-09-26T20:20:23.347Z,31.55
2022-09-26T20:22:51.624Z,37.60
2022-09-26T20:25:31.005Z,38.65
2022-09-26T20:27:58.653Z,37.28
2022-09-26T20:30:45.302Z,33.17
2022-09-26T20:33:13.279Z,29.25
2022-09-26T20:35:44.747Z,29.77
2022-09-26T20:38:19.638Z,27.88
2022-09-26T20:40:46.757Z,29.77
2022-09-26T20:43:21.000Z,27.98
2022-09-26T20:45:47.849Z,30.15
2022-09-26T20:48:21.174Z,31.27
2022-09-26T20:50:49.495Z,29.48
2022-09-26T20:53:20.750Z,28.95
2022-09-26T20:55:48.192Z,26.48
2022-09-26T20:58:15.162Z,25.63
2022-09-26T21:00:43.235Z,31.38
2022-09-26T21:03:15.873Z,28.17
2022-09-26T21:05:43.185Z,27.00
2022-09-26T21:08:17.412Z,28.38
2022-09-26T21:10:44.041Z,28.50
2022-09-26T21:13:10.631Z,28.40
2022-09-26T21:15:37.228Z,27.25
2022-09-26T21:18:03.932Z,28.65
2022-09-26T21:20:33.688Z,28.67
2022-09-26T21:23:02.051Z,29.00
2022-09-26T21:28:40.056Z,28.05
2022-09-26T21:31:07.224Z,27.20
2022-09-26T21:33:35.782Z,29.17
2022-09-26T21:36:02.477Z,27.90
2022-09-26T21:38:29.983Z,29.35
2022-09-26T21:41:00.338Z,25.17
2022-09-26T21:43:31.885Z,26.15
2022-09-26T21:45:58.589Z,25.60
2022-09-26T21:48:25.282Z,24.98
2022-09-26T21:50:58.155Z,23.67
2022-09-26T21:53:37.033Z,23.05
2022-09-26T21:56:12.737Z,24.77
2022-09-26T21:58:41.347Z,24.63
2022-09-26T22:01:09.211Z,25.27
2022-09-26T22:03:36.095Z,24.90
2022-09-26T22:06:07.211Z,24.15
2022-09-26T22:08:34.252Z,24.90
2022-09-26T22:11:02.666Z,26.55
2022-09-26T22:13:30.234Z,26.67
2022-09-26T22:16:07.338Z,26.92
2022-09-26T22:18:35.232Z,27.65
2022-09-26T22:21:04.533Z,27.15
2022-09-26T22:23:32.615Z,26.25
2022-09-26T22:25:59.681Z,27.48
2022-09-26T22:28:27.011Z,27.75
2022-09-26T22:30:54.857Z,29.38
2022-09-26T22:33:22.784Z,30.05
2022-09-26T22:35:50.666Z,30.23
2022-09-26T22:38:18.430Z,29.80
2022-09-26T22:40:46.370Z,29.30
2022-09-26T22:43:12.944Z,30.85
2022-09-26T22:45:39.528Z,32.05
2022-09-26T22:48:06.051Z,32.58
2022-09-26T22:50:32.841Z,33.72
2022-09-26T22:52:59.408Z,32.78
2022-09-26T22:55:26.093Z,32.58
2022-09-26T22:57:52.714Z,33.70
2022-09-26T23:00:19.328Z,35.03
2022-09-26T23:02:45.897Z,33.20
2022-09-26T23:05:12.495Z,32.25
2022-09-26T23:07:39.037Z,34.08
2022-09-26T23:10:05.915Z,37.13
2022-09-26T23:12:32.591Z,38.92
2022-09-26T23:14:59.593Z,41.67
2022-09-26T23:17:26.135Z,41.90
2022-09-26T23:19:52.785Z,41.70
2022-09-26T23:22:19.398Z,40.92
2022-09-26T23:24:46.035Z,39.85
2022-09-26T23:29:37.644Z,33.78
2022-09-26T23:32:04.180Z,34.78
2022-09-26T23:34:30.724Z,35.03
2022-09-26T23:36:57.310Z,31.40
2022-09-26T23:39:24.094Z,32.40
2022-09-26T23:41:50.633Z,31.05
2022-09-26T23:44:17.133Z,30.75
2022-09-26T23:46:43.833Z,30.92
2022-09-26T23:49:10.552Z,28.73
2022-09-26T23:51:37.106Z,29.67
2022-09-26T23:54:03.842Z,30.70
2022-09-26T23:56:30.439Z,30.05
2022-09-26T23:58:57.500Z,27.98
